Terminal Aerodrome Forecast
Issued by NWS

Home | Current Version | Previous Version | Text Only | Print | Product List | Glossary On
Versions: 1 2 3 4 5 6 7 8 9 10 11 12 13 14 15 16 17 18 19 20 21
000
FTUS42 TJSJ 172300 RRA
TAFJSJ
TAF
TJSJ 172343Z 1800/1824 01005KT P6SM SCT030
     FM181400 05009KT P6SM FEW030 SCT070
     FM182200 06004KT P6SM FEW030=

USA.gov is the U.S. government's official web portal to all federal, state and local government web resources and services.